Time;durP1;ratioP1;P1;durP2;ratioP2;P2;SDS_P1;SDS_P2;PMS_P1;PMS_P2;Temp;Humidity;BMP_temperature;BMP_pressure;BME280_temperature;BME280_humidity;BME280_pressure;Samples;Min_cycle;Max_cycle;Signal;HPM_P1;HPM_P2
2021/09/11 00:01:51;;;;;;;19.50;8.23;;;;;;;11.10;83.71;99506.94;5072877;28;20105;-60
2021/09/11 00:04:17;;;;;;;20.83;10.63;;;;;;;11.09;83.86;99504.53;5074463;28;20032;-61
2021/09/11 00:06:43;;;;;;;18.88;10.88;;;;;;;11.01;84.01;99497.75;5056114;28;20063;-61
2021/09/11 00:09:08;;;;;;;19.27;10.35;;;;;;;11.00;83.81;99504.13;5074091;28;20497;-61
2021/09/11 00:11:34;;;;;;;22.98;10.27;;;;;;;11.01;83.82;99505.72;5072557;28;20047;-61
2021/09/11 00:14:00;;;;;;;15.93;9.80;;;;;;;11.00;84.00;99506.78;5073748;28;20506;-61
2021/09/11 00:16:26;;;;;;;17.88;10.00;;;;;;;10.98;84.45;99503.53;5073779;28;20044;-60
2021/09/11 00:18:51;;;;;;;23.27;9.48;;;;;;;10.97;84.53;99506.41;5072492;28;20044;-60
2021/09/11 00:21:17;;;;;;;19.10;8.60;;;;;;;10.97;84.56;99504.59;5072789;28;20123;-61
2021/09/11 00:23:43;;;;;;;14.65;7.25;;;;;;;11.00;84.25;99505.94;5072346;28;20525;-60
2021/09/11 00:26:09;;;;;;;13.52;6.85;;;;;;;11.04;83.69;99502.59;5073946;28;20040;-61
2021/09/11 00:28:35;;;;;;;16.55;7.15;;;;;;;11.08;83.33;99497.59;5072430;28;20049;-59
2021/09/11 00:31:01;;;;;;;15.73;7.95;;;;;;;11.12;83.46;99507.53;5055577;28;20033;-60
2021/09/11 00:33:26;;;;;;;12.52;7.35;;;;;;;11.17;83.46;99506.78;5072334;28;20135;-61
2021/09/11 00:35:52;;;;;;;18.17;7.72;;;;;;;11.20;82.93;99510.81;5055569;28;20066;-61
2021/09/11 00:38:18;;;;;;;14.82;7.68;;;;;;;11.24;83.00;99501.34;5073262;28;20039;-60
2021/09/11 00:40:44;;;;;;;13.75;6.70;;;;;;;11.24;82.72;99512.78;5073387;28;20078;-60
2021/09/11 00:43:10;;;;;;;17.58;7.35;;;;;;;11.26;82.43;99504.56;5073363;28;20048;-60
2021/09/11 00:45:36;;;;;;;22.60;8.85;;;;;;;11.25;82.58;99503.75;5071996;28;20460;-61
2021/09/11 00:48:02;;;;;;;15.05;7.60;;;;;;;11.25;82.67;99503.75;5071872;28;20040;-59
2021/09/11 00:50:28;;;;;;;22.23;8.15;;;;;;;11.26;82.72;99518.63;5039146;28;20553;-60
2021/09/11 00:52:54;;;;;;;17.65;8.43;;;;;;;11.24;82.64;99512.78;5055193;28;20135;-60
2021/09/11 00:55:21;;;;;;;13.80;8.18;;;;;;;11.25;82.77;99518.88;5073471;28;20387;-61
2021/09/11 00:57:51;;;;;;;15.07;7.68;;;;;;;11.23;82.65;99515.66;5054296;28;20126;-61
2021/09/11 01:00:17;;;;;;;19.23;8.60;;;;;;;11.25;82.42;99516.22;5071718;28;20052;-60
2021/09/11 01:02:43;;;;;;;18.48;8.88;;;;;;;11.24;82.33;99504.81;5071538;28;20086;-60
2021/09/11 01:05:10;;;;;;;13.10;8.05;;;;;;;11.23;82.56;99510.34;5073377;28;20445;-62
2021/09/11 01:07:38;;;;;;;14.73;8.45;;;;;;;11.22;82.63;99522.00;5071554;28;20052;-60
2021/09/11 01:10:04;;;;;;;15.85;8.70;;;;;;;11.22;82.61;99514.06;5072596;28;20041;-61
2021/09/11 01:12:31;;;;;;;15.55;8.23;;;;;;;11.24;82.41;99515.44;5072482;28;20094;-61
2021/09/11 01:15:01;;;;;;;20.80;8.65;;;;;;;11.22;82.92;99512.19;5071664;28;20068;-60
2021/09/11 01:17:27;;;;;;;14.85;7.70;;;;;;;11.18;82.93;99519.03;5072567;28;20037;-61
2021/09/11 01:19:53;;;;;;;17.05;8.93;;;;;;;11.13;83.30;99513.63;5072935;28;20071;-60
2021/09/11 01:22:18;;;;;;;25.95;8.95;;;;;;;11.13;83.13;99506.47;5072426;28;20129;-59
2021/09/11 01:24:54;;;;;;;21.98;10.90;;;;;;;11.13;82.87;99510.97;5071277;28;20049;-60
2021/09/11 01:27:20;;;;;;;16.67;9.43;;;;;;;11.12;82.95;99512.03;5072232;28;20585;-61
2021/09/11 01:29:57;;;;;;;22.08;9.90;;;;;;;11.16;83.04;99510.50;5054699;28;20102;-60
2021/09/11 01:32:23;;;;;;;25.55;11.30;;;;;;;11.08;83.09;99493.09;5072293;28;20040;-61
2021/09/11 01:34:50;;;;;;;22.33;11.45;;;;;;;11.13;83.01;99511.78;5054449;28;20044;-59
2021/09/11 01:37:16;;;;;;;22.52;11.27;;;;;;;11.19;82.92;99503.91;5070916;28;20037;-60
2021/09/11 01:39:46;;;;;;;24.63;12.40;;;;;;;11.22;83.01;99500.78;5071083;28;20044;-61
2021/09/11 01:42:12;;;;;;;;;;;;;;;11.20;83.22;99498.34;5071263;28;20526;-60
2021/09/11 01:44:46;;;;;;;30.50;14.75;;;;;;;11.13;83.42;99503.00;5070678;28;19935;-60
2021/09/11 01:47:13;;;;;;;25.90;17.08;;;;;;;11.10;83.72;99498.19;5054036;28;20429;-60
2021/09/11 01:49:39;;;;;;;26.90;17.20;;;;;;;11.09;83.50;99505.34;5070814;28;20044;-60
2021/09/11 01:52:05;;;;;;;32.60;20.88;;;;;;;11.07;83.96;99503.97;5071873;28;20051;-60
2021/09/11 01:54:31;;;;;;;32.47;17.10;;;;;;;11.07;83.67;99512.72;5072052;28;20413;-60
2021/09/11 01:56:57;;;;;;;26.75;15.02;;;;;;;11.08;83.94;99501.06;5072061;28;20051;-60
2021/09/11 01:59:24;;;;;;;28.33;13.93;;;;;;;11.11;83.94;99494.47;5071834;28;20394;-60
2021/09/11 02:01:50;;;;;;;26.25;15.18;;;;;;;11.15;83.95;99508.91;5070562;28;20525;-59
2021/09/11 02:04:16;;;;;;;26.15;15.35;;;;;;;11.21;83.45;99507.94;5071961;28;20037;-59
2021/09/11 02:06:42;;;;;;;32.08;16.98;;;;;;;11.26;83.49;99504.56;5071634;28;20399;-59
2021/09/11 02:09:08;;;;;;;23.73;15.80;;;;;;;11.31;83.70;99507.31;5071764;28;20048;-59
2021/09/11 02:11:34;;;;;;;26.05;16.15;;;;;;;11.39;83.13;99506.91;5071598;28;20036;-62
2021/09/11 02:14:00;;;;;;;26.52;16.05;;;;;;;11.47;82.87;99511.00;5070240;28;20064;-60
2021/09/11 02:16:26;;;;;;;29.58;16.77;;;;;;;11.45;82.60;99503.31;5070458;28;20044;-60
2021/09/11 02:18:52;;;;;;;29.17;16.00;;;;;;;11.49;82.43;99509.75;5070216;28;20131;-60
2021/09/11 02:21:17;;;;;;;25.45;14.20;;;;;;;11.46;82.58;99514.72;5071522;28;20511;-61
2021/09/11 02:23:43;;;;;;;22.65;12.25;;;;;;;11.43;82.75;99510.69;5071551;28;20052;-61
2021/09/11 02:26:09;;;;;;;27.88;13.45;;;;;;;11.41;82.57;99510.13;5071481;28;20413;-60
2021/09/11 02:28:35;;;;;;;24.52;12.73;;;;;;;11.39;82.78;99508.78;5071451;28;20055;-61
2021/09/11 02:31:00;;;;;;;28.02;13.70;;;;;;;11.41;82.70;99510.13;5071681;28;20412;-60
2021/09/11 02:33:26;;;;;;;24.83;11.82;;;;;;;11.37;83.15;99506.34;5069938;28;20044;-60
2021/09/11 02:35:52;;;;;;;24.40;12.38;;;;;;;11.41;82.77;99517.28;5053546;28;20615;-60
2021/09/11 02:38:19;;;;;;;21.33;11.40;;;;;;;11.44;82.71;99512.31;5071271;28;20139;-60
2021/09/11 02:40:44;;;;;;;18.85;12.55;;;;;;;11.46;82.49;99506.75;5070010;28;20122;-62
2021/09/11 02:43:10;;;;;;;26.13;11.93;;;;;;;11.37;82.46;99501.03;5071110;28;20056;-61
2021/09/11 02:45:36;;;;;;;32.35;12.50;;;;;;;11.34;82.58;99498.88;5071259;28;20500;-61
2021/09/11 02:48:02;;;;;;;25.35;13.00;;;;;;;11.34;82.59;99501.53;5069937;28;20135;-60
2021/09/11 02:50:27;;;;;;;24.65;12.10;;;;;;;11.34;82.57;99504.19;5070022;28;20540;-63
2021/09/11 02:52:53;;;;;;;25.88;13.70;;;;;;;11.33;82.75;99505.22;5070642;28;20519;-59
2021/09/11 02:55:19;;;;;;;26.27;14.35;;;;;;;11.30;82.87;99500.41;5071258;28;20086;-61
2021/09/11 02:57:45;;;;;;;30.23;15.13;;;;;;;11.27;83.20;99507.00;5069698;28;20037;-60
2021/09/11 03:00:11;;;;;;;27.20;15.35;;;;;;;11.24;82.90;99504.00;5053314;28;20049;-61
2021/09/11 03:02:37;;;;;;;26.45;14.20;;;;;;;11.20;82.80;99505.50;5070988;28;20050;-62
2021/09/11 03:05:03;;;;;;;26.88;13.93;;;;;;;11.13;83.35;99500.38;5053350;28;20044;-60
2021/09/11 03:07:29;;;;;;;28.83;13.63;;;;;;;11.04;83.36;99499.94;5071070;28;20052;-59
2021/09/11 03:09:55;;;;;;;26.15;14.52;;;;;;;11.04;83.81;99510.53;5071490;28;20051;-59
2021/09/11 03:12:20;;;;;;;24.30;13.50;;;;;;;11.07;83.70;99515.38;5071256;28;20036;-60
2021/09/11 03:14:46;;;;;;;22.45;14.20;;;;;;;11.13;83.51;99517.06;5069890;28;20557;-61
2021/09/11 03:17:12;;;;;;;25.73;14.32;;;;;;;11.21;83.17;99517.75;5069612;28;20123;-60
2021/09/11 03:19:38;;;;;;;27.65;12.48;;;;;;;11.25;82.70;99513.56;5070676;28;20134;-60
2021/09/11 03:22:04;;;;;;;22.58;12.80;;;;;;;11.27;82.70;99506.19;5057031;28;20074;-59
2021/09/11 03:24:30;;;;;;;23.52;14.02;;;;;;;11.32;82.62;99506.25;5075062;28;20072;-60
2021/09/11 03:26:56;;;;;;;32.30;13.63;;;;;;;11.36;82.56;99513.50;5074664;28;20044;-60
2021/09/11 03:29:21;;;;;;;32.28;15.68;;;;;;;11.37;82.40;99514.31;5073471;28;20178;-60
2021/09/11 03:31:47;;;;;;;31.75;14.90;;;;;;;11.41;82.51;99514.63;5073351;28;20135;-60
2021/09/11 03:34:13;;;;;;;26.52;15.13;;;;;;;11.44;82.04;99514.16;5073292;28;20052;-59
2021/09/11 03:36:39;;;;;;;29.75;14.07;;;;;;;11.44;82.08;99514.97;5074480;28;20048;-58
2021/09/11 03:39:04;;;;;;;29.13;14.20;;;;;;;11.49;82.14;99512.38;5074706;28;20044;-60
2021/09/11 03:41:30;;;;;;;33.78;14.02;;;;;;;11.53;82.05;99510.06;5074221;28;20040;-62
2021/09/11 03:43:56;;;;;;;22.95;12.80;;;;;;;11.58;81.64;99510.16;5074486;28;20071;-60
2021/09/11 03:46:22;;;;;;;26.42;13.27;;;;;;;11.62;81.41;99519.25;5056571;28;20165;-61
2021/09/11 03:48:48;;;;;;;26.02;12.45;;;;;;;11.66;81.45;99515.06;5072958;28;20044;-60
2021/09/11 03:51:13;;;;;;;20.92;12.13;;;;;;;11.65;81.64;99512.63;5073071;28;20050;-61
2021/09/11 03:53:39;;;;;;;26.83;15.20;;;;;;;11.75;81.39;99526.09;5056118;28;20136;-61
2021/09/11 03:56:05;;;;;;;49.03;24.00;;;;;;;11.76;81.17;99522.38;5074479;28;20037;-62
2021/09/11 03:58:32;;;;;;;58.17;27.92;;;;;;;11.79;80.89;99521.91;5074095;28;20068;-59
2021/09/11 04:01:00;;;;;;;61.17;29.92;;;;;;;11.87;81.11;99523.38;5072794;28;20040;-61
2021/09/11 04:03:26;;;;;;;55.08;29.17;;;;;;;11.93;80.87;99523.22;5073840;28;20044;-61
2021/09/11 04:05:52;;;;;;;43.60;22.52;;;;;;;12.01;80.84;99522.81;5073767;28;20046;-60
2021/09/11 04:08:18;;;;;;;30.98;17.83;;;;;;;12.09;80.72;99526.09;5073880;28;20063;-59
2021/09/11 04:10:43;;;;;;;32.53;17.05;;;;;;;12.15;80.32;99525.13;5073905;28;20055;-61
2021/09/11 04:13:09;;;;;;;37.85;16.35;;;;;;;12.35;80.17;99532.56;5073584;28;20531;-59
2021/09/11 04:15:35;;;;;;;20.73;14.15;;;;;;;12.64;78.96;99535.88;5072557;28;20063;-59
2021/09/11 04:18:01;;;;;;;28.52;14.85;;;;;;;12.84;78.54;99528.16;5073756;28;20071;-59
2021/09/11 04:20:26;;;;;;;26.95;14.85;;;;;;;13.10;78.21;99526.56;5074161;28;20508;-61
2021/09/11 04:22:52;;;;;;;34.13;16.25;;;;;;;13.24;77.27;99532.31;5073651;28;20447;-61
2021/09/11 04:25:19;;;;;;;29.52;16.02;;;;;;;13.40;76.72;99525.28;5072519;28;20044;-61
2021/09/11 04:27:45;;;;;;;26.83;16.42;;;;;;;13.58;76.50;99527.56;5072388;28;20659;-60
2021/09/11 04:30:11;;;;;;;25.40;14.88;;;;;;;13.69;75.67;99522.34;5072543;28;20053;-60
2021/09/11 04:32:37;;;;;;;26.65;15.32;;;;;;;13.82;75.80;99522.72;5072444;28;20040;-60
2021/09/11 04:35:03;;;;;;;23.10;14.50;;;;;;;13.97;74.35;99523.88;5073428;28;20045;-60
2021/09/11 04:37:29;;;;;;;18.77;13.35;;;;;;;14.11;73.44;99524.25;5038796;28;20040;-59
2021/09/11 04:39:55;;;;;;;21.38;13.95;;;;;;;14.18;72.76;99511.50;5072304;28;20097;-61
2021/09/11 04:42:21;;;;;;;25.02;12.52;;;;;;;14.19;71.40;99508.56;5072306;28;20036;-61
2021/09/11 04:44:47;;;;;;;19.98;12.95;;;;;;;14.19;71.42;99505.91;5055547;28;20498;-60
2021/09/11 04:47:13;;;;;;;21.58;13.27;;;;;;;14.19;71.69;99503.25;5073187;28;20041;-60
2021/09/11 04:49:38;;;;;;;27.13;13.88;;;;;;;14.29;71.92;99515.81;5038758;28;20087;-60
2021/09/11 04:52:05;;;;;;;18.98;13.55;;;;;;;14.30;71.50;99504.09;5055238;28;20131;-60
2021/09/11 04:54:31;;;;;;;20.85;13.75;;;;;;;14.36;71.51;99507.59;5073250;28;20063;-61
2021/09/11 04:56:57;;;;;;;24.25;14.18;;;;;;;14.36;71.92;99512.94;5071668;28;20087;-62
2021/09/11 04:59:25;;;;;;;26.60;14.70;;;;;;;14.35;71.50;99511.31;5073266;28;20045;-60
2021/09/11 05:01:52;;;;;;;22.98;14.52;;;;;;;14.36;72.31;99508.41;5072863;28;20044;-61
2021/09/11 05:04:18;;;;;;;24.15;13.63;;;;;;;14.37;71.93;99503.88;5073233;28;20040;-60
2021/09/11 05:06:44;;;;;;;21.17;13.02;;;;;;;14.41;71.50;99500.44;5072789;28;20044;-59
2021/09/11 05:09:13;;;;;;;24.17;13.50;;;;;;;14.50;71.42;99501.53;5039552;28;20048;-59
2021/09/11 05:11:39;;;;;;;23.10;14.23;;;;;;;14.59;71.06;99491.19;5072581;28;20040;-61
2021/09/11 05:14:05;;;;;;;22.48;13.50;;;;;;;14.68;71.74;99494.97;5072819;28;20147;-60
2021/09/11 05:16:32;;;;;;;24.77;14.27;;;;;;;14.74;71.27;99491.25;5072592;28;20576;-61
2021/09/11 05:18:57;;;;;;;22.10;13.35;;;;;;;14.87;71.19;99492.63;5072664;28;20080;-61
2021/09/11 05:21:23;;;;;;;20.67;12.93;;;;;;;14.98;70.25;99496.13;5072318;28;20391;-61
2021/09/11 05:23:49;;;;;;;25.23;13.45;;;;;;;14.93;69.98;99472.88;5071172;28;20436;-62
2021/09/11 05:26:15;;;;;;;20.60;12.30;;;;;;;15.11;68.74;99482.25;5054495;28;20040;-61
2021/09/11 05:28:41;;;;;;;21.83;12.43;;;;;;;15.22;68.57;99486.53;5072569;28;20040;-61
2021/09/11 05:31:07;;;;;;;17.90;12.25;;;;;;;15.39;68.38;99491.66;5072232;28;20394;-62
2021/09/11 05:33:32;;;;;;;18.77;11.82;;;;;;;15.54;67.72;99493.53;5072115;28;20048;-62
2021/09/11 05:35:58;;;;;;;18.45;11.50;;;;;;;15.66;67.06;99501.25;5054109;28;20040;-62
2021/09/11 05:38:24;;;;;;;21.75;11.40;;;;;;;15.78;66.63;99503.69;5071910;28;20044;-61
2021/09/11 05:40:50;;;;;;;20.10;12.25;;;;;;;15.77;66.51;99494.09;5071849;28;20179;-62
2021/09/11 05:43:16;;;;;;;21.65;11.80;;;;;;;15.84;66.42;99503.41;5053255;28;20096;-62
2021/09/11 05:45:42;;;;;;;20.42;13.18;;;;;;;15.90;65.63;99504.22;5070668;28;20041;-64
2021/09/11 05:48:08;;;;;;;24.35;14.05;;;;;;;15.92;65.75;99501.28;5071721;28;20127;-63
2021/09/11 05:50:34;;;;;;;20.33;12.20;;;;;;;15.99;64.72;99504.47;5071972;28;20585;-66
2021/09/11 05:53:00;;;;;;;16.92;10.52;;;;;;;15.97;64.67;99499.41;5053189;28;20055;-58
2021/09/11 05:55:26;;;;;;;18.92;11.77;;;;;;;15.99;65.04;99507.13;5071773;28;20132;-62
2021/09/11 05:57:52;;;;;;;16.20;11.02;;;;;;;15.95;64.90;99498.88;5053964;28;20127;-61
2021/09/11 06:00:17;;;;;;;19.17;10.75;;;;;;;15.83;65.21;99499.16;5072166;28;20516;-61
2021/09/11 06:02:43;;;;;;;14.55;10.45;;;;;;;15.97;65.83;99504.75;5070365;28;20055;-60
2021/09/11 06:05:09;;;;;;;19.10;10.02;;;;;;;16.09;65.06;99501.78;5072004;28;20131;-61
2021/09/11 06:07:37;;;;;;;22.77;11.32;;;;;;;16.21;64.76;99509.53;5071712;28;20144;-62
2021/09/11 06:10:03;;;;;;;17.65;10.48;;;;;;;16.34;63.91;99509.72;5053623;28;20048;-61
2021/09/11 06:12:29;;;;;;;16.50;10.32;;;;;;;16.41;63.79;99504.09;5071021;28;20041;-60
2021/09/11 06:14:55;;;;;;;15.73;10.25;;;;;;;16.55;63.56;99509.66;5065596;28;20060;-62
2021/09/11 06:17:21;;;;;;;17.17;10.07;;;;;;;16.52;62.45;99507.53;5069918;28;20546;-60
2021/09/11 06:19:47;;;;;;;14.82;10.05;;;;;;;16.49;62.72;99502.72;5036802;28;20076;-61
2021/09/11 06:22:13;;;;;;;12.57;9.40;;;;;;;16.67;62.41;99509.34;5053068;28;20120;-62
2021/09/11 06:24:40;;;;;;;11.07;8.73;;;;;;;16.74;62.29;99512.53;5070043;28;20509;-61
2021/09/11 06:27:07;;;;;;;14.00;9.05;;;;;;;16.69;62.35;99505.31;5053012;28;20040;-60
2021/09/11 06:29:33;;;;;;;14.32;8.63;;;;;;;16.76;62.26;99511.19;5070888;28;20086;-61
2021/09/11 06:31:59;;;;;;;16.40;10.07;;;;;;;16.78;62.27;99514.41;5069845;28;20036;-60
2021/09/11 06:34:25;;;;;;;10.93;8.45;;;;;;;16.93;61.51;99510.84;5069833;28;20083;-59
2021/09/11 06:36:51;;;;;;;15.98;8.73;;;;;;;17.01;61.19;99512.97;5069625;28;20033;-60
2021/09/11 06:39:18;;;;;;;12.15;9.73;;;;;;;17.13;60.90;99509.94;5070968;28;20044;-60
2021/09/11 06:41:44;;;;;;;13.93;8.75;;;;;;;17.14;60.98;99500.03;5070916;28;20098;-61
2021/09/11 06:44:09;;;;;;;16.10;9.13;;;;;;;17.21;60.37;99505.88;5069159;28;20206;-63
2021/09/11 06:46:35;;;;;;;15.35;9.23;;;;;;;17.28;60.32;99514.41;5069685;28;20040;-61
2021/09/11 06:49:02;;;;;;;16.58;9.30;;;;;;;17.38;60.36;99511.66;5070981;28;20533;-62
2021/09/11 06:51:28;;;;;;;11.60;8.27;;;;;;;17.52;59.89;99506.44;5069897;28;20049;-60
2021/09/11 06:53:54;;;;;;;11.90;8.85;;;;;;;17.55;59.49;99511.25;5069500;28;20048;-62
2021/09/11 06:56:20;;;;;;;13.60;9.52;;;;;;;17.52;59.75;99511.00;5074575;28;20052;-62
2021/09/11 06:58:45;;;;;;;12.77;9.07;;;;;;;17.46;59.70;99503.00;5074539;28;20040;-63
2021/09/11 07:01:11;;;;;;;14.00;8.60;;;;;;;17.46;59.76;99510.25;5057040;28;20070;-63
2021/09/11 07:03:37;;;;;;;12.18;8.60;;;;;;;17.46;59.24;99513.72;5074757;28;20113;-61
2021/09/11 07:06:05;;;;;;;13.75;9.48;;;;;;;17.37;59.85;99510.03;5073597;28;20083;-62
2021/09/11 07:08:31;;;;;;;12.27;8.93;;;;;;;17.42;60.16;99503.88;5075042;28;20090;-61
2021/09/11 07:10:58;;;;;;;13.10;8.75;;;;;;;17.56;59.32;99507.50;5074808;28;20040;-60
2021/09/11 07:13:23;;;;;;;12.65;8.70;;;;;;;17.60;59.32;99510.41;5074033;28;20064;-59
2021/09/11 07:15:49;;;;;;;13.13;8.70;;;;;;;17.64;59.45;99514.94;5073098;28;20086;-61
2021/09/11 07:18:15;;;;;;;13.73;8.63;;;;;;;17.77;59.37;99510.81;5074766;28;20040;-59
2021/09/11 07:20:41;;;;;;;15.43;8.68;;;;;;;17.95;59.00;99512.03;5074780;28;20064;-60
2021/09/11 07:23:07;;;;;;;16.63;9.82;;;;;;;18.00;58.74;99503.09;5074811;28;20044;-62
2021/09/11 07:25:33;;;;;;;11.27;8.10;;;;;;;17.96;58.70;99505.56;5073449;28;20041;-62
2021/09/11 07:27:59;;;;;;;15.18;8.70;;;;;;;17.93;58.50;99496.19;5074549;28;20415;-62
2021/09/11 07:30:24;;;;;;;12.43;8.23;;;;;;;18.09;58.11;99493.38;5075066;28;20059;-61
2021/09/11 07:32:50;;;;;;;14.43;8.35;;;;;;;18.29;57.73;99508.44;5073313;28;20498;-61
2021/09/11 07:35:16;;;;;;;12.10;8.00;;;;;;;18.34;57.30;99506.50;5056911;28;20048;-61
2021/09/11 07:37:42;;;;;;;12.10;8.90;;;;;;;18.32;57.51;99499.81;5073317;28;20044;-61
2021/09/11 07:40:09;;;;;;;10.63;8.55;;;;;;;18.38;57.18;99509.41;5073359;28;20052;-61
2021/09/11 07:42:35;;;;;;;13.02;8.63;;;;;;;18.34;57.61;99503.81;5072689;28;20090;-61
2021/09/11 07:45:01;;;;;;;14.32;8.32;;;;;;;18.34;57.50;99506.50;5074704;28;20456;-61
2021/09/11 07:47:27;;;;;;;14.43;8.98;;;;;;;18.36;57.39;99501.66;5072901;28;20052;-60
2021/09/11 07:49:52;;;;;;;15.02;7.95;;;;;;;18.28;57.62;99496.91;5073089;28;20040;-61
2021/09/11 07:52:19;;;;;;;14.32;8.23;;;;;;;18.27;57.75;99502.59;5074078;28;20497;-61
2021/09/11 07:54:44;;;;;;;16.30;8.40;;;;;;;18.33;57.97;99488.03;5074414;28;20044;-61
2021/09/11 07:57:10;;;;;;;12.65;8.10;;;;;;;18.34;57.52;99486.94;5074162;28;20047;-62
2021/09/11 07:59:36;;;;;;;14.05;8.00;;;;;;;18.26;57.70;99496.41;5072650;28;20595;-61
2021/09/11 08:02:03;;;;;;;13.35;8.02;;;;;;;18.34;57.90;99497.66;5074570;28;20398;-62
2021/09/11 08:04:29;;;;;;;12.70;7.72;;;;;;;18.53;58.07;99497.69;5074393;28;20048;-62
2021/09/11 08:06:56;;;;;;;13.45;7.05;;;;;;;18.62;57.74;99496.00;5072463;28;20075;-62
2021/09/11 08:09:22;;;;;;;13.50;7.70;;;;;;;18.65;57.39;99494.59;5073808;28;20052;-61
2021/09/11 08:11:48;;;;;;;12.95;7.35;;;;;;;18.50;57.62;99487.53;5073931;28;20036;-63
2021/09/11 08:14:14;;;;;;;12.45;7.82;;;;;;;18.52;58.25;99488.06;5073793;28;20071;-61
2021/09/11 08:16:39;;;;;;;10.88;7.57;;;;;;;18.54;57.40;99481.31;5072518;28;20052;-62
2021/09/11 08:19:05;;;;;;;15.55;8.27;;;;;;;18.59;57.84;99486.63;5074008;28;20102;-61
2021/09/11 08:21:31;;;;;;;13.20;7.25;;;;;;;18.65;57.32;99479.31;5073421;28;20055;-64
2021/09/11 08:23:57;;;;;;;11.07;7.47;;;;;;;18.69;57.21;99472.28;5055532;28;20087;-61
2021/09/11 08:26:24;;;;;;;14.48;7.18;;;;;;;18.81;56.92;99482.63;5038695;28;20048;-61
2021/09/11 08:28:51;;;;;;;11.25;7.13;;;;;;;18.86;56.50;99473.69;5073542;28;20041;-62
2021/09/11 08:31:18;;;;;;;16.88;7.65;;;;;;;18.76;57.30;99480.00;5073403;28;20040;-62
2021/09/11 08:33:43;;;;;;;14.73;7.50;;;;;;;18.56;57.11;99481.00;5072267;28;20044;-62
2021/09/11 08:36:09;;;;;;;18.63;7.70;;;;;;;18.49;57.95;99489.44;5073322;28;20085;-61
2021/09/11 08:38:35;;;;;;;11.57;8.00;;;;;;;18.54;58.16;99488.56;5072119;28;20055;-62
2021/09/11 08:41:08;;;;;;;13.68;7.38;;;;;;;18.53;58.04;99495.00;5073562;28;20044;-61
2021/09/11 08:43:35;;;;;;;11.15;7.10;;;;;;;18.57;58.06;99486.13;5073273;28;20055;-63
2021/09/11 08:46:01;;;;;;;15.13;7.20;;;;;;;18.68;57.85;99485.97;5073304;28;20135;-61
2021/09/11 08:48:27;;;;;;;18.10;8.80;;;;;;;18.69;58.28;99488.38;5071719;28;20048;-62
2021/09/11 08:50:53;;;;;;;21.48;8.63;;;;;;;18.72;58.00;99493.16;5073088;28;20162;-63
2021/09/11 08:53:20;;;;;;;10.90;7.72;;;;;;;18.76;57.81;99471.94;5072899;28;20127;-62
2021/09/11 08:55:45;;;;;;;14.90;8.10;;;;;;;18.79;57.69;99480.22;5073376;28;20036;-62
2021/09/11 08:58:11;;;;;;;13.00;7.38;;;;;;;18.69;57.21;99474.94;5072824;28;20136;-62
2021/09/11 09:00:48;;;;;;;15.00;7.57;;;;;;;18.51;57.74;99475.72;5072551;28;20499;-62
2021/09/11 09:03:34;;;;;;;12.30;8.05;;;;;;;18.29;58.55;99476.25;5072924;28;20036;-61
2021/09/11 09:06:12;;;;;;;13.50;7.55;;;;;;;18.12;59.28;99466.78;5072995;28;20041;-62
2021/09/11 09:08:38;;;;;;;18.23;8.52;;;;;;;18.13;59.24;99471.06;5072717;28;20047;-61
2021/09/11 09:11:27;;;;;;;15.95;7.93;;;;;;;18.12;59.49;99466.78;5072728;28;20036;-62
2021/09/11 09:14:03;;;;;;;16.52;8.38;;;;;;;18.09;59.53;99455.84;5071425;28;20056;-61
2021/09/11 09:16:36;;;;;;;16.88;7.85;;;;;;;18.08;59.90;99459.59;5072609;28;20042;-61
2021/09/11 09:19:18;;;;;;;15.48;7.97;;;;;;;18.10;60.01;99452.06;5070827;28;20059;-62
2021/09/11 09:21:46;;;;;;;12.95;8.13;;;;;;;18.13;60.07;99449.59;5071155;28;20164;-61
2021/09/11 09:24:14;;;;;;;15.68;8.13;;;;;;;18.28;60.12;99453.97;5071337;28;20132;-63
2021/09/11 09:26:49;;;;;;;16.77;8.10;;;;;;;18.45;59.61;99447.34;5072285;28;20528;-61
2021/09/11 09:29:16;;;;;;;10.95;8.43;;;;;;;18.39;59.63;99439.38;5072692;28;20543;-60
2021/09/11 09:31:43;;;;;;;15.98;8.40;;;;;;;18.49;59.59;99435.75;5072306;28;20136;-62
2021/09/11 09:34:10;;;;;;;17.48;7.78;;;;;;;18.53;59.81;99434.09;5072331;28;20081;-61
2021/09/11 09:36:38;;;;;;;17.17;8.07;;;;;;;18.71;59.76;99437.88;5072163;28;20512;-61
2021/09/11 09:39:07;;;;;;;12.35;6.97;;;;;;;18.89;59.15;99427.47;5072504;28;20036;-61
2021/09/11 09:41:48;;;;;;;12.18;6.82;;;;;;;19.00;59.25;99424.34;5072184;28;20047;-60
2021/09/11 09:44:15;;;;;;;10.93;6.90;;;;;;;19.03;58.89;99420.25;5072345;28;20036;-61
2021/09/11 09:46:44;;;;;;;10.50;6.35;;;;;;;19.14;58.57;99426.25;5072097;28;20132;-61
2021/09/11 09:49:11;;;;;;;11.60;6.32;;;;;;;19.16;57.69;99416.81;5053760;28;20045;-61
2021/09/11 09:51:37;;;;;;;9.60;6.03;;;;;;;19.21;58.20;99426.72;5072088;28;20045;-61
2021/09/11 09:54:03;;;;;;;12.82;5.68;;;;;;;19.27;57.86;99420.94;5070749;28;20048;-61
2021/09/11 09:56:32;;;;;;;15.32;6.05;;;;;;;19.31;57.67;99420.34;5071880;28;20028;-61
2021/09/11 09:58:59;;;;;;;11.23;5.72;;;;;;;19.31;57.63;99417.66;5071937;28;20037;-59
2021/09/11 10:01:26;;;;;;;10.52;5.55;;;;;;;19.38;58.27;99415.38;5071981;28;20044;-60
2021/09/11 10:03:52;;;;;;;8.20;5.40;;;;;;;19.24;57.56;99407.31;5071832;28;20048;-60
2021/09/11 10:06:25;;;;;;;8.55;6.05;;;;;;;19.20;57.10;99411.66;5071939;28;20059;-61
2021/09/11 10:08:58;;;;;;;11.65;5.95;;;;;;;19.16;57.73;99411.44;5071686;28;20072;-61
2021/09/11 10:11:36;;;;;;;12.98;6.15;;;;;;;19.12;57.47;99409.63;5070348;28;20047;-64
2021/09/11 10:14:04;;;;;;;8.80;6.18;;;;;;;19.01;57.83;99395.56;5069860;28;20068;-61
2021/09/11 10:16:32;;;;;;;12.32;6.00;;;;;;;18.93;58.14;99401.59;5071430;28;20082;-60
2021/09/11 10:18:58;;;;;;;9.60;5.93;;;;;;;18.89;58.27;99395.25;5071130;28;20076;-60
2021/09/11 10:21:27;;;;;;;9.18;5.88;;;;;;;18.94;58.26;99393.28;5071660;28;20109;-61
2021/09/11 10:23:56;;;;;;;11.52;6.47;;;;;;;18.95;58.11;99396.75;5071643;28;20048;-60
2021/09/11 10:26:47;;;;;;;10.13;6.15;;;;;;;18.95;58.70;99397.53;5071370;28;20048;-60
2021/09/11 10:29:34;;;;;;;13.02;6.18;;;;;;;19.06;58.12;99396.31;5070217;28;20044;-60
2021/09/11 10:32:02;;;;;;;9.35;6.32;;;;;;;19.29;58.22;99393.75;5071172;28;20524;-60
2021/09/11 10:34:47;;;;;;;11.13;5.95;;;;;;;19.51;57.59;99385.84;5070003;28;20048;-60
2021/09/11 10:37:39;;;;;;;12.63;6.38;;;;;;;19.55;57.88;99380.69;5071376;28;20089;-60
2021/09/11 10:40:30;;;;;;;8.05;6.10;;;;;;;19.65;57.10;99385.13;5071778;28;20055;-61
2021/09/11 10:43:09;;;;;;;11.75;6.55;;;;;;;19.78;56.88;99383.53;5071362;28;20040;-61
2021/09/11 10:45:39;;;;;;;13.70;6.80;;;;;;;19.81;57.35;99380.25;5027368;28;20061;-60
2021/09/11 10:48:06;;;;;;;8.25;5.45;;;;;;;19.68;56.88;99379.94;5048583;28;20422;-59
2021/09/11 10:50:39;;;;;;;6.72;5.20;;;;;;;19.46;57.04;99371.72;5048262;28;20140;-61
2021/09/11 10:53:21;;;;;;;8.77;4.97;;;;;;;19.19;58.06;99367.88;5029126;28;20033;-60
2021/09/11 10:55:50;;;;;;;8.15;5.15;;;;;;;18.98;58.79;99367.41;5047974;28;20122;-61
2021/09/11 10:58:26;;;;;;;8.05;5.28;;;;;;;19.11;59.38;99367.75;5048128;28;20040;-61
2021/09/11 11:00:56;;;;;;;9.55;5.20;;;;;;;19.15;59.38;99366.06;5045571;28;20037;-59
2021/09/11 11:03:23;;;;;;;8.02;5.45;;;;;;;19.09;59.58;99360.00;5047938;28;20044;-59
2021/09/11 11:06:02;;;;;;;7.97;5.30;;;;;;;19.21;59.61;99363.00;5039937;28;20040;-61
2021/09/11 11:08:32;;;;;;;8.95;5.10;;;;;;;19.30;59.34;99357.75;5063095;28;20049;-60
2021/09/11 11:11:02;;;;;;;7.57;5.15;;;;;;;19.29;59.42;99354.28;5045292;28;20137;-60
2021/09/11 11:13:28;;;;;;;10.27;5.13;;;;;;;19.29;59.71;99358.81;5065058;28;20056;-64
2021/09/11 11:15:58;;;;;;;8.55;5.22;;;;;;;19.29;59.63;99350.75;5056389;28;20041;-59
2021/09/11 11:18:28;;;;;;;11.65;5.22;;;;;;;19.11;59.60;99344.34;5058963;28;20028;-61
2021/09/11 11:20:54;;;;;;;12.48;5.30;;;;;;;19.13;59.36;99342.19;5048153;28;20036;-61
2021/09/11 11:23:21;;;;;;;9.13;5.20;;;;;;;19.17;59.31;99347.75;5061350;28;20052;-61